To NAV CANADA Home Page Login to a new session Search on AWWS site Disclaimer Vers la page française équivalente Tips FAQ What's new on the site To the Forecasts and Observations / NOTAM section To "File a Flight Plan" website Publications and other links Update of the User's profile FIC Telephone Numbers My Weather Data Folder Route Weather Data Regional Weather Data Local Weather Data To the Forecasts and Observations / NOTAM section
Request Generated 10/21/2018 at 06:12:51 UTC . Weather information available at that time is displayed.

METAR/TAF

SALLUIT/QC    

LWIS CYZG 210600Z AUTO 25005KT M08/M11 A2985=
LWIS CYZG 210500Z AUTO 25004KT M08/M10 A2984=
LWIS CYZG 210400Z AUTO 24002KT M07/M10 A2983=

*** REMARK        : Forecast period has ended; this was the last TAF issued
*** REMARQUE : La période de prévision est échue; ceci était le dernier TAF qui a été émis
TAF CYZG 201338Z 2014/2021 23012KT 3SM -SHSN BKN012 OVC025 TEMPO
2014/2021 P6SM -SN SCT010 BKN040 PROB30 2014/2018 11/2SM -SHSN
RMK NXT FCST WILL BE ISSUED AT 211345Z=
Your time UTC time
Weather data provided by Environment Canada and NAV CANADA